sensor_id;sensor_type;location;lat;lon;timestamp;P1;P2;P0
65361;PMS5003;51961;54.960;73.462;2022-07-06T00:00:59;14.00;8.25;3.00
65361;PMS5003;51961;54.960;73.462;2022-07-06T00:04:02;13.00;7.25;2.75
65361;PMS5003;51961;54.960;73.462;2022-07-06T00:07:14;9.67;7.00;2.00
65361;PMS5003;51961;54.960;73.462;2022-07-06T00:10:22;9.00;5.25;1.00
65361;PMS5003;51961;54.960;73.462;2022-07-06T00:13:24;7.00;5.00;0.00
65361;PMS5003;51961;54.960;73.462;2022-07-06T00:16:27;7.00;6.00;1.00
65361;PMS5003;51961;54.960;73.462;2022-07-06T00:19:30;7.50;5.25;1.00
65361;PMS5003;51961;54.960;73.462;2022-07-06T00:22:32;9.00;6.75;0.00
65361;PMS5003;51961;54.960;73.462;2022-07-06T00:25:33;9.00;7.50;0.00
65361;PMS5003;51961;54.960;73.462;2022-07-06T00:28:36;9.67;7.00;2.00
65361;PMS5003;51961;54.960;73.462;2022-07-06T00:31:39;8.00;6.75;1.00
65361;PMS5003;51961;54.960;73.462;2022-07-06T00:34:52;9.00;8.00;1.00
65361;PMS5003;51961;54.960;73.462;2022-07-06T00:38:00;12.75;8.00;1.00
65361;PMS5003;51961;54.960;73.462;2022-07-06T00:41:06;12.75;7.50;2.75
65361;PMS5003;51961;54.960;73.462;2022-07-06T00:44:09;13.00;7.75;2.00
65361;PMS5003;51961;54.960;73.462;2022-07-06T00:47:12;14.00;9.00;3.00
65361;PMS5003;51961;54.960;73.462;2022-07-06T00:50:16;13.00;7.25;2.00
65361;PMS5003;51961;54.960;73.462;2022-07-06T00:53:25;14.75;9.00;3.00
65361;PMS5003;51961;54.960;73.462;2022-07-06T00:56:29;17.75;10.50;2.75
65361;PMS5003;51961;54.960;73.462;2022-07-06T00:59:32;15.00;9.00;2.75
65361;PMS5003;51961;54.960;73.462;2022-07-06T01:02:35;17.00;11.25;3.00
65361;PMS5003;51961;54.960;73.462;2022-07-06T01:05:38;13.50;9.25;2.00
65361;PMS5003;51961;54.960;73.462;2022-07-06T01:08:51;20.00;11.75;2.00
65361;PMS5003;51961;54.960;73.462;2022-07-06T01:12:04;20.00;14.00;3.75
65361;PMS5003;51961;54.960;73.462;2022-07-06T01:15:09;19.25;13.75;3.25
65361;PMS5003;51961;54.960;73.462;2022-07-06T01:18:13;20.25;13.00;3.75
65361;PMS5003;51961;54.960;73.462;2022-07-06T01:21:26;17.00;14.00;4.00
65361;PMS5003;51961;54.960;73.462;2022-07-06T01:24:29;18.25;15.50;4.00
65361;PMS5003;51961;54.960;73.462;2022-07-06T01:27:34;19.00;16.00;5.00
65361;PMS5003;51961;54.960;73.462;2022-07-06T01:30:39;24.75;20.00;7.00
65361;PMS5003;51961;54.960;73.462;2022-07-06T01:33:42;26.00;20.00;8.00
65361;PMS5003;51961;54.960;73.462;2022-07-06T01:36:45;27.00;21.00;7.00
65361;PMS5003;51961;54.960;73.462;2022-07-06T01:39:49;28.33;21.00;7.00
65361;PMS5003;51961;54.960;73.462;2022-07-06T01:42:51;24.00;18.00;6.00
65361;PMS5003;51961;54.960;73.462;2022-07-06T01:45:55;21.00;17.00;6.00
65361;PMS5003;51961;54.960;73.462;2022-07-06T01:48:57;19.67;16.67;7.00
65361;PMS5003;51961;54.960;73.462;2022-07-06T01:52:05;24.00;19.75;7.50
65361;PMS5003;51961;54.960;73.462;2022-07-06T01:55:07;21.00;19.00;6.00
65361;PMS5003;51961;54.960;73.462;2022-07-06T01:58:17;19.00;16.00;4.00
65361;PMS5003;51961;54.960;73.462;2022-07-06T02:01:20;22.75;16.00;5.00
65361;PMS5003;51961;54.960;73.462;2022-07-06T02:04:24;22.75;17.00;5.25
65361;PMS5003;51961;54.960;73.462;2022-07-06T02:07:27;20.50;16.00;6.00
65361;PMS5003;51961;54.960;73.462;2022-07-06T02:10:36;20.25;17.00;6.00
65361;PMS5003;51961;54.960;73.462;2022-07-06T02:13:39;20.75;16.25;7.00
65361;PMS5003;51961;54.960;73.462;2022-07-06T02:16:45;23.00;18.00;6.00
65361;PMS5003;51961;54.960;73.462;2022-07-06T02:19:48;22.00;19.00;5.50
65361;PMS5003;51961;54.960;73.462;2022-07-06T02:22:51;21.00;18.00;5.00
65361;PMS5003;51961;54.960;73.462;2022-07-06T02:25:54;24.00;19.00;6.00
65361;PMS5003;51961;54.960;73.462;2022-07-06T02:28:57;25.00;18.75;6.00
65361;PMS5003;51961;54.960;73.462;2022-07-06T02:32:01;25.00;18.00;5.50
65361;PMS5003;51961;54.960;73.462;2022-07-06T02:35:09;26.75;19.00;7.00
65361;PMS5003;51961;54.960;73.462;2022-07-06T02:38:12;28.00;19.00;6.00
65361;PMS5003;51961;54.960;73.462;2022-07-06T02:41:15;22.00;16.75;3.50
65361;PMS5003;51961;54.960;73.462;2022-07-06T02:44:17;21.00;16.00;5.00
65361;PMS5003;51961;54.960;73.462;2022-07-06T02:47:20;19.75;16.00;6.00
65361;PMS5003;51961;54.960;73.462;2022-07-06T02:50:24;20.50;15.00;6.00
65361;PMS5003;51961;54.960;73.462;2022-07-06T02:53:28;20.50;18.75;5.00
65361;PMS5003;51961;54.960;73.462;2022-07-06T02:56:33;19.75;18.00;5.00
65361;PMS5003;51961;54.960;73.462;2022-07-06T02:59:36;22.00;17.00;4.75
65361;PMS5003;51961;54.960;73.462;2022-07-06T03:02:50;21.75;17.00;5.00
65361;PMS5003;51961;54.960;73.462;2022-07-06T03:05:59;20.00;16.00;5.00
65361;PMS5003;51961;54.960;73.462;2022-07-06T03:09:09;24.00;15.50;4.00
65361;PMS5003;51961;54.960;73.462;2022-07-06T03:12:12;21.00;16.00;4.00
65361;PMS5003;51961;54.960;73.462;2022-07-06T03:15:22;21.00;17.50;5.25
65361;PMS5003;51961;54.960;73.462;2022-07-06T03:18:25;20.50;16.00;5.00
65361;PMS5003;51961;54.960;73.462;2022-07-06T03:21:28;20.25;15.50;4.00
65361;PMS5003;51961;54.960;73.462;2022-07-06T03:24:37;21.00;18.00;5.00
65361;PMS5003;51961;54.960;73.462;2022-07-06T03:27:40;22.00;18.00;5.00
65361;PMS5003;51961;54.960;73.462;2022-07-06T03:30:54;22.00;17.50;7.00
65361;PMS5003;51961;54.960;73.462;2022-07-06T03:33:58;20.00;18.00;5.50
65361;PMS5003;51961;54.960;73.462;2022-07-06T03:37:05;21.00;18.00;5.33
65361;PMS5003;51961;54.960;73.462;2022-07-06T03:40:08;23.00;18.33;5.00
65361;PMS5003;51961;54.960;73.462;2022-07-06T03:43:21;21.00;18.00;5.00
65361;PMS5003;51961;54.960;73.462;2022-07-06T03:46:25;26.33;22.00;9.00
65361;PMS5003;51961;54.960;73.462;2022-07-06T03:49:37;33.00;27.00;12.00
65361;PMS5003;51961;54.960;73.462;2022-07-06T03:52:42;35.00;29.00;13.33
65361;PMS5003;51961;54.960;73.462;2022-07-06T03:55:46;36.25;27.00;14.00
65361;PMS5003;51961;54.960;73.462;2022-07-06T03:59:08;40.50;30.50;16.50
65361;PMS5003;51961;54.960;73.462;2022-07-06T04:02:12;39.00;30.00;17.00
65361;PMS5003;51961;54.960;73.462;2022-07-06T04:05:19;37.00;29.50;16.00
65361;PMS5003;51961;54.960;73.462;2022-07-06T04:08:24;39.75;31.75;15.25
65361;PMS5003;51961;54.960;73.462;2022-07-06T04:11:32;37.00;31.00;17.00
65361;PMS5003;51961;54.960;73.462;2022-07-06T04:14:34;44.75;33.00;18.75
65361;PMS5003;51961;54.960;73.462;2022-07-06T04:17:43;44.00;34.00;19.00
65361;PMS5003;51961;54.960;73.462;2022-07-06T04:20:57;39.00;30.50;18.00
65361;PMS5003;51961;54.960;73.462;2022-07-06T04:24:00;39.75;31.75;17.00
65361;PMS5003;51961;54.960;73.462;2022-07-06T04:27:03;40.00;32.00;18.50
65361;PMS5003;51961;54.960;73.462;2022-07-06T04:30:16;39.00;30.67;17.00
65361;PMS5003;51961;54.960;73.462;2022-07-06T04:33:19;36.50;29.00;16.00
65361;PMS5003;51961;54.960;73.462;2022-07-06T04:36:22;40.50;31.00;15.50
65361;PMS5003;51961;54.960;73.462;2022-07-06T04:39:24;43.00;34.25;18.00
65361;PMS5003;51961;54.960;73.462;2022-07-06T04:42:27;43.00;32.67;19.00
65361;PMS5003;51961;54.960;73.462;2022-07-06T04:45:31;38.25;31.00;18.00
65361;PMS5003;51961;54.960;73.462;2022-07-06T04:48:35;38.75;31.00;17.00
65361;PMS5003;51961;54.960;73.462;2022-07-06T04:51:48;35.75;30.50;17.00
65361;PMS5003;51961;54.960;73.462;2022-07-06T04:54:51;36.00;30.00;15.00
65361;PMS5003;51961;54.960;73.462;2022-07-06T04:57:53;37.00;31.33;16.00
65361;PMS5003;51961;54.960;73.462;2022-07-06T05:01:00;35.00;30.00;15.33
65361;PMS5003;51961;54.960;73.462;2022-07-06T05:04:08;31.00;28.50;14.00
65361;PMS5003;51961;54.960;73.462;2022-07-06T05:07:20;34.75;29.75;13.00
65361;PMS5003;51961;54.960;73.462;2022-07-06T05:10:22;36.00;31.00;15.00
65361;PMS5003;51961;54.960;73.462;2022-07-06T05:13:28;36.00;27.50;16.50
65361;PMS5003;51961;54.960;73.462;2022-07-06T05:16:40;35.00;29.50;18.00
65361;PMS5003;51961;54.960;73.462;2022-07-06T05:19:44;32.25;29.00;17.00
65361;PMS5003;51961;54.960;73.462;2022-07-06T05:22:47;29.75;26.00;16.25
65361;PMS5003;51961;54.960;73.462;2022-07-06T05:25:53;32.00;28.00;16.00
65361;PMS5003;51961;54.960;73.462;2022-07-06T05:28:55;27.25;24.00;14.00
65361;PMS5003;51961;54.960;73.462;2022-07-06T05:32:09;30.50;26.25;14.50
65361;PMS5003;51961;54.960;73.462;2022-07-06T05:35:12;37.00;27.00;15.67
65361;PMS5003;51961;54.960;73.462;2022-07-06T05:38:22;32.00;26.40;16.00
65361;PMS5003;51961;54.960;73.462;2022-07-06T05:41:30;32.00;27.00;15.00
65361;PMS5003;51961;54.960;73.462;2022-07-06T05:44:43;30.50;26.75;15.00
65361;PMS5003;51961;54.960;73.462;2022-07-06T05:47:45;30.00;26.00;14.00
65361;PMS5003;51961;54.960;73.462;2022-07-06T05:51:09;31.50;28.00;16.00
65361;PMS5003;51961;54.960;73.462;2022-07-06T05:54:11;33.00;29.50;17.00
65361;PMS5003;51961;54.960;73.462;2022-07-06T05:57:14;34.50;29.00;16.00
65361;PMS5003;51961;54.960;73.462;2022-07-06T06:00:16;34.00;29.00;17.00
65361;PMS5003;51961;54.960;73.462;2022-07-06T06:03:22;40.25;32.00;19.00
65361;PMS5003;51961;54.960;73.462;2022-07-06T06:06:25;39.75;32.00;20.00
65361;PMS5003;51961;54.960;73.462;2022-07-06T06:09:28;45.00;35.00;19.50
65361;PMS5003;51961;54.960;73.462;2022-07-06T06:12:31;44.50;35.50;21.00
65361;PMS5003;51961;54.960;73.462;2022-07-06T06:15:33;45.50;36.00;21.00
65361;PMS5003;51961;54.960;73.462;2022-07-06T06:18:35;47.50;38.00;22.00
65361;PMS5003;51961;54.960;73.462;2022-07-06T06:21:37;47.00;37.00;22.00
65361;PMS5003;51961;54.960;73.462;2022-07-06T06:24:39;45.00;34.50;21.00
65361;PMS5003;51961;54.960;73.462;2022-07-06T06:27:51;45.00;34.00;21.00
65361;PMS5003;51961;54.960;73.462;2022-07-06T06:31:03;43.00;35.00;21.00
65361;PMS5003;51961;54.960;73.462;2022-07-06T06:34:05;45.00;34.00;21.00
65361;PMS5003;51961;54.960;73.462;2022-07-06T06:37:07;43.00;34.00;21.00
65361;PMS5003;51961;54.960;73.462;2022-07-06T06:40:14;38.25;32.00;19.00
65361;PMS5003;51961;54.960;73.462;2022-07-06T06:43:17;38.75;31.00;18.00
65361;PMS5003;51961;54.960;73.462;2022-07-06T06:46:29;37.00;29.25;17.00
65361;PMS5003;51961;54.960;73.462;2022-07-06T06:49:32;38.00;31.00;17.00
65361;PMS5003;51961;54.960;73.462;2022-07-06T06:52:35;41.00;32.00;18.25
65361;PMS5003;51961;54.960;73.462;2022-07-06T06:55:43;37.50;32.00;19.00
65361;PMS5003;51961;54.960;73.462;2022-07-06T06:58:51;40.67;32.67;19.67
65361;PMS5003;51961;54.960;73.462;2022-07-06T07:01:54;34.50;31.00;19.00
65361;PMS5003;51961;54.960;73.462;2022-07-06T07:05:06;33.00;29.00;18.00
65361;PMS5003;51961;54.960;73.462;2022-07-06T07:08:08;31.25;27.25;16.00
65361;PMS5003;51961;54.960;73.462;2022-07-06T07:11:10;31.50;27.00;15.00
65361;PMS5003;51961;54.960;73.462;2022-07-06T07:14:12;33.25;29.50;17.50
65361;PMS5003;51961;54.960;73.462;2022-07-06T07:17:14;33.00;29.00;17.50
65361;PMS5003;51961;54.960;73.462;2022-07-06T07:20:16;32.00;24.50;14.00
65361;PMS5003;51961;54.960;73.462;2022-07-06T07:23:18;32.50;28.50;15.75
65361;PMS5003;51961;54.960;73.462;2022-07-06T07:26:20;36.00;31.00;18.00
65361;PMS5003;51961;54.960;73.462;2022-07-06T07:29:22;38.00;32.00;18.00
65361;PMS5003;51961;54.960;73.462;2022-07-06T07:32:24;35.00;30.00;18.00
65361;PMS5003;51961;54.960;73.462;2022-07-06T07:35:26;37.00;29.00;18.00
65361;PMS5003;51961;54.960;73.462;2022-07-06T07:38:28;32.50;26.00;18.00
65361;PMS5003;51961;54.960;73.462;2022-07-06T07:41:30;34.50;28.50;19.00
65361;PMS5003;51961;54.960;73.462;2022-07-06T07:44:32;32.00;28.00;18.00
65361;PMS5003;51961;54.960;73.462;2022-07-06T07:47:39;33.00;30.00;19.00
65361;PMS5003;51961;54.960;73.462;2022-07-06T07:50:41;35.50;31.25;19.00
65361;PMS5003;51961;54.960;73.462;2022-07-06T07:53:45;39.00;31.00;20.00
65361;PMS5003;51961;54.960;73.462;2022-07-06T07:56:46;39.50;32.50;20.00
65361;PMS5003;51961;54.960;73.462;2022-07-06T07:59:49;38.00;33.00;19.00
65361;PMS5003;51961;54.960;73.462;2022-07-06T08:03:01;32.25;31.00;20.00
65361;PMS5003;51961;54.960;73.462;2022-07-06T08:06:03;33.00;31.00;19.00
65361;PMS5003;51961;54.960;73.462;2022-07-06T08:09:10;34.50;30.00;18.00
65361;PMS5003;51961;54.960;73.462;2022-07-06T08:12:14;34.60;30.80;19.00
65361;PMS5003;51961;54.960;73.462;2022-07-06T08:15:16;29.75;27.00;17.00
65361;PMS5003;51961;54.960;73.462;2022-07-06T08:18:18;35.60;29.00;18.40
65361;PMS5003;51961;54.960;73.462;2022-07-06T08:21:30;34.50;29.50;19.50
65361;PMS5003;51961;54.960;73.462;2022-07-06T08:24:33;34.00;28.00;18.00
65361;PMS5003;51961;54.960;73.462;2022-07-06T08:27:36;32.00;28.00;17.00
65361;PMS5003;51961;54.960;73.462;2022-07-06T08:30:38;30.00;28.50;16.00
65361;PMS5003;51961;54.960;73.462;2022-07-06T08:33:44;33.00;30.00;16.50
65361;PMS5003;51961;54.960;73.462;2022-07-06T08:36:46;35.00;29.00;17.00
65361;PMS5003;51961;54.960;73.462;2022-07-06T08:39:48;35.00;30.00;19.00
65361;PMS5003;51961;54.960;73.462;2022-07-06T08:43:00;38.25;31.25;19.00
65361;PMS5003;51961;54.960;73.462;2022-07-06T08:46:02;41.50;33.00;19.00
65361;PMS5003;51961;54.960;73.462;2022-07-06T08:49:12;43.33;35.00;20.00
65361;PMS5003;51961;54.960;73.462;2022-07-06T08:52:14;41.50;32.75;20.00
65361;PMS5003;51961;54.960;73.462;2022-07-06T08:55:17;42.00;34.00;21.00
65361;PMS5003;51961;54.960;73.462;2022-07-06T08:58:23;44.00;33.00;21.00
65361;PMS5003;51961;54.960;73.462;2022-07-06T09:01:37;42.75;34.00;19.00
65361;PMS5003;51961;54.960;73.462;2022-07-06T09:04:40;39.00;33.50;19.50
65361;PMS5003;51961;54.960;73.462;2022-07-06T09:07:49;43.00;34.00;20.75
65361;PMS5003;51961;54.960;73.462;2022-07-06T09:10:51;41.25;34.00;20.00
65361;PMS5003;51961;54.960;73.462;2022-07-06T09:13:53;40.00;32.00;19.00
65361;PMS5003;51961;54.960;73.462;2022-07-06T09:17:03;38.00;32.00;19.00
65361;PMS5003;51961;54.960;73.462;2022-07-06T09:20:11;37.00;31.00;18.00
65361;PMS5003;51961;54.960;73.462;2022-07-06T09:23:15;34.50;31.00;19.00
65361;PMS5003;51961;54.960;73.462;2022-07-06T09:26:17;35.00;30.00;19.00
65361;PMS5003;51961;54.960;73.462;2022-07-06T09:29:30;36.75;31.00;19.00
65361;PMS5003;51961;54.960;73.462;2022-07-06T09:32:37;34.75;31.00;19.00
65361;PMS5003;51961;54.960;73.462;2022-07-06T09:35:40;39.50;31.00;20.00
65361;PMS5003;51961;54.960;73.462;2022-07-06T09:38:42;38.00;30.00;18.50
65361;PMS5003;51961;54.960;73.462;2022-07-06T09:41:53;38.00;31.00;19.00
65361;PMS5003;51961;54.960;73.462;2022-07-06T09:45:02;36.25;30.00;19.00
65361;PMS5003;51961;54.960;73.462;2022-07-06T09:48:19;35.20;31.00;19.00
65361;PMS5003;51961;54.960;73.462;2022-07-06T09:51:23;37.50;31.00;19.00
65361;PMS5003;51961;54.960;73.462;2022-07-06T09:54:32;39.75;31.25;19.50
65361;PMS5003;51961;54.960;73.462;2022-07-06T09:57:35;38.50;31.00;19.00
65361;PMS5003;51961;54.960;73.462;2022-07-06T10:00:38;37.00;32.00;19.00
65361;PMS5003;51961;54.960;73.462;2022-07-06T10:03:42;36.25;31.50;20.50
65361;PMS5003;51961;54.960;73.462;2022-07-06T10:06:44;41.00;33.00;20.00
65361;PMS5003;51961;54.960;73.462;2022-07-06T10:09:48;38.33;31.00;19.00
65361;PMS5003;51961;54.960;73.462;2022-07-06T10:12:50;37.00;31.00;18.00
65361;PMS5003;51961;54.960;73.462;2022-07-06T10:15:58;35.00;31.00;18.00
65361;PMS5003;51961;54.960;73.462;2022-07-06T10:19:01;34.00;29.50;19.00
65361;PMS5003;51961;54.960;73.462;2022-07-06T10:22:05;31.00;28.50;18.00
65361;PMS5003;51961;54.960;73.462;2022-07-06T10:25:08;32.00;29.00;17.00
65361;PMS5003;51961;54.960;73.462;2022-07-06T10:28:10;33.50;29.75;17.50
65361;PMS5003;51961;54.960;73.462;2022-07-06T10:31:21;34.00;30.00;18.00
65361;PMS5003;51961;54.960;73.462;2022-07-06T10:34:25;35.00;31.00;18.00
65361;PMS5003;51961;54.960;73.462;2022-07-06T10:37:28;35.00;31.00;19.00
65361;PMS5003;51961;54.960;73.462;2022-07-06T10:40:40;34.50;29.50;17.50
65361;PMS5003;51961;54.960;73.462;2022-07-06T10:44:15;33.00;29.00;16.00
65361;PMS5003;51961;54.960;73.462;2022-07-06T10:47:17;29.75;28.00;16.00
65361;PMS5003;51961;54.960;73.462;2022-07-06T10:50:34;29.00;27.75;15.00
65361;PMS5003;51961;54.960;73.462;2022-07-06T10:53:37;29.75;25.00;12.25
65361;PMS5003;51961;54.960;73.462;2022-07-06T10:56:47;31.00;25.33;13.00
65361;PMS5003;51961;54.960;73.462;2022-07-06T11:00:03;25.25;22.00;10.25
65361;PMS5003;51961;54.960;73.462;2022-07-06T11:03:32;25.00;22.00;11.50
65361;PMS5003;51961;54.960;73.462;2022-07-06T11:06:38;26.00;24.25;10.50
65361;PMS5003;51961;54.960;73.462;2022-07-06T11:09:41;21.00;20.00;9.00
65361;PMS5003;51961;54.960;73.462;2022-07-06T11:12:49;22.00;19.00;10.00
65361;PMS5003;51961;54.960;73.462;2022-07-06T11:16:02;24.00;20.00;10.00
65361;PMS5003;51961;54.960;73.462;2022-07-06T11:19:10;24.75;21.00;11.25
65361;PMS5003;51961;54.960;73.462;2022-07-06T11:22:14;25.00;23.00;10.00
65361;PMS5003;51961;54.960;73.462;2022-07-06T11:25:17;23.33;22.00;9.00
65361;PMS5003;51961;54.960;73.462;2022-07-06T11:28:22;22.00;20.00;9.50
65361;PMS5003;51961;54.960;73.462;2022-07-06T11:31:24;23.50;21.50;8.50
65361;PMS5003;51961;54.960;73.462;2022-07-06T11:34:29;25.00;20.00;9.00
65361;PMS5003;51961;54.960;73.462;2022-07-06T11:37:31;22.00;20.67;8.00
65361;PMS5003;51961;54.960;73.462;2022-07-06T11:40:37;22.00;20.00;8.00
65361;PMS5003;51961;54.960;73.462;2022-07-06T11:43:39;21.00;19.33;8.00
65361;PMS5003;51961;54.960;73.462;2022-07-06T11:46:47;22.00;21.00;10.00
65361;PMS5003;51961;54.960;73.462;2022-07-06T11:49:49;23.67;21.00;8.00
65361;PMS5003;51961;54.960;73.462;2022-07-06T11:52:52;22.33;20.00;8.00
65361;PMS5003;51961;54.960;73.462;2022-07-06T11:55:56;22.67;20.33;9.67
65361;PMS5003;51961;54.960;73.462;2022-07-06T11:59:03;23.00;21.00;10.00
65361;PMS5003;51961;54.960;73.462;2022-07-06T12:05:09;21.50;19.25;9.50
65361;PMS5003;51961;54.960;73.462;2022-07-06T12:08:11;24.00;22.00;10.00
65361;PMS5003;51961;54.960;73.462;2022-07-06T12:11:26;23.75;21.25;10.00
65361;PMS5003;51961;54.960;73.462;2022-07-06T12:14:31;21.00;21.00;8.00
65361;PMS5003;51961;54.960;73.462;2022-07-06T12:17:33;21.00;21.00;9.00
65361;PMS5003;51961;54.960;73.462;2022-07-06T12:20:35;21.00;21.00;8.00
65361;PMS5003;51961;54.960;73.462;2022-07-06T12:23:38;22.00;22.00;9.00
65361;PMS5003;51961;54.960;73.462;2022-07-06T12:26:41;22.00;19.00;9.33
65361;PMS5003;51961;54.960;73.462;2022-07-06T12:29:44;19.00;17.00;8.00
65361;PMS5003;51961;54.960;73.462;2022-07-06T12:32:46;18.50;15.50;6.00
65361;PMS5003;51961;54.960;73.462;2022-07-06T12:35:50;20.50;17.00;6.25
65361;PMS5003;51961;54.960;73.462;2022-07-06T12:38:52;18.00;16.00;7.00
65361;PMS5003;51961;54.960;73.462;2022-07-06T12:41:55;17.00;16.00;6.00
65361;PMS5003;51961;54.960;73.462;2022-07-06T12:45:05;17.00;14.00;5.00
65361;PMS5003;51961;54.960;73.462;2022-07-06T12:48:10;14.00;10.00;5.00
65361;PMS5003;51961;54.960;73.462;2022-07-06T12:51:14;13.00;11.00;5.00
65361;PMS5003;51961;54.960;73.462;2022-07-06T12:54:17;11.25;9.50;5.00
65361;PMS5003;51961;54.960;73.462;2022-07-06T12:57:22;13.75;12.00;4.00
65361;PMS5003;51961;54.960;73.462;2022-07-06T13:00:32;13.00;11.00;4.00
65361;PMS5003;51961;54.960;73.462;2022-07-06T13:03:46;14.00;10.00;4.75
65361;PMS5003;51961;54.960;73.462;2022-07-06T13:06:49;13.50;7.50;4.00
65361;PMS5003;51961;54.960;73.462;2022-07-06T13:09:51;12.00;8.00;4.00
65361;PMS5003;51961;54.960;73.462;2022-07-06T13:12:54;10.00;9.00;4.00
65361;PMS5003;51961;54.960;73.462;2022-07-06T13:15:57;9.00;8.00;3.00
65361;PMS5003;51961;54.960;73.462;2022-07-06T13:19:00;8.00;7.50;1.00
65361;PMS5003;51961;54.960;73.462;2022-07-06T13:22:03;12.00;9.50;3.75
65361;PMS5003;51961;54.960;73.462;2022-07-06T13:25:06;12.00;10.00;4.00
65361;PMS5003;51961;54.960;73.462;2022-07-06T13:28:09;7.50;7.00;3.00
65361;PMS5003;51961;54.960;73.462;2022-07-06T13:31:11;11.50;10.50;4.00
65361;PMS5003;51961;54.960;73.462;2022-07-06T13:34:19;12.75;9.75;4.00
65361;PMS5003;51961;54.960;73.462;2022-07-06T13:37:22;7.00;5.75;3.00
65361;PMS5003;51961;54.960;73.462;2022-07-06T13:40:25;8.25;5.25;3.00
65361;PMS5003;51961;54.960;73.462;2022-07-06T13:43:27;7.75;5.25;2.00
65361;PMS5003;51961;54.960;73.462;2022-07-06T13:46:37;4.50;4.50;2.00
65361;PMS5003;51961;54.960;73.462;2022-07-06T13:49:40;6.00;6.00;2.00
65361;PMS5003;51961;54.960;73.462;2022-07-06T13:52:44;8.00;7.00;3.00
65361;PMS5003;51961;54.960;73.462;2022-07-06T13:55:47;8.00;7.50;3.00
65361;PMS5003;51961;54.960;73.462;2022-07-06T13:58:49;9.00;8.25;3.25
65361;PMS5003;51961;54.960;73.462;2022-07-06T14:01:51;7.50;7.25;3.00
65361;PMS5003;51961;54.960;73.462;2022-07-06T14:04:53;8.00;8.00;2.25
65361;PMS5003;51961;54.960;73.462;2022-07-06T14:07:56;8.00;6.00;2.00
65361;PMS5003;51961;54.960;73.462;2022-07-06T14:10:58;6.25;6.00;3.00
65361;PMS5003;51961;54.960;73.462;2022-07-06T14:14:10;6.50;6.50;2.50
65361;PMS5003;51961;54.960;73.462;2022-07-06T14:17:13;8.50;6.00;2.00
65361;PMS5003;51961;54.960;73.462;2022-07-06T14:20:15;10.00;8.00;3.50
65361;PMS5003;51961;54.960;73.462;2022-07-06T14:23:18;7.75;6.00;3.00
65361;PMS5003;51961;54.960;73.462;2022-07-06T14:26:20;6.00;5.00;2.00
65361;PMS5003;51961;54.960;73.462;2022-07-06T14:29:27;6.00;5.00;2.00
65361;PMS5003;51961;54.960;73.462;2022-07-06T14:32:28;5.25;5.25;2.25
65361;PMS5003;51961;54.960;73.462;2022-07-06T14:38:41;6.00;5.25;2.00
65361;PMS5003;51961;54.960;73.462;2022-07-06T14:41:43;6.75;6.00;1.00
65361;PMS5003;51961;54.960;73.462;2022-07-06T14:44:45;6.00;4.25;1.00
65361;PMS5003;51961;54.960;73.462;2022-07-06T14:47:48;11.00;9.00;4.00
65361;PMS5003;51961;54.960;73.462;2022-07-06T14:50:51;13.75;10.00;4.00
65361;PMS5003;51961;54.960;73.462;2022-07-06T14:53:55;15.00;6.50;3.00
65361;PMS5003;51961;54.960;73.462;2022-07-06T14:56:58;9.50;5.00;2.00
65361;PMS5003;51961;54.960;73.462;2022-07-06T15:00:00;10.75;7.00;3.00
65361;PMS5003;51961;54.960;73.462;2022-07-06T15:03:04;8.00;7.00;3.00
65361;PMS5003;51961;54.960;73.462;2022-07-06T15:06:06;8.00;5.00;2.00
65361;PMS5003;51961;54.960;73.462;2022-07-06T15:09:09;8.00;5.25;2.00
65361;PMS5003;51961;54.960;73.462;2022-07-06T15:12:11;6.00;6.00;1.00
65361;PMS5003;51961;54.960;73.462;2022-07-06T15:15:12;9.00;7.75;1.50
65361;PMS5003;51961;54.960;73.462;2022-07-06T15:18:14;9.75;8.50;3.00
65361;PMS5003;51961;54.960;73.462;2022-07-06T15:21:17;17.25;15.50;7.50
65361;PMS5003;51961;54.960;73.462;2022-07-06T15:24:19;20.00;18.00;6.00
65361;PMS5003;51961;54.960;73.462;2022-07-06T15:27:23;23.75;20.50;10.25
65361;PMS5003;51961;54.960;73.462;2022-07-06T15:30:31;15.00;14.00;3.75
65361;PMS5003;51961;54.960;73.462;2022-07-06T15:33:35;15.50;13.25;5.25
65361;PMS5003;51961;54.960;73.462;2022-07-06T15:36:39;11.00;6.50;4.00
65361;PMS5003;51961;54.960;73.462;2022-07-06T15:39:42;9.75;7.00;3.00
65361;PMS5003;51961;54.960;73.462;2022-07-06T15:42:55;12.75;10.00;4.00
65361;PMS5003;51961;54.960;73.462;2022-07-06T15:45:59;13.75;9.75;4.00
65361;PMS5003;51961;54.960;73.462;2022-07-06T15:49:02;10.00;9.00;4.00
65361;PMS5003;51961;54.960;73.462;2022-07-06T15:52:04;8.50;6.00;3.00
65361;PMS5003;51961;54.960;73.462;2022-07-06T15:55:12;10.00;8.00;3.25
65361;PMS5003;51961;54.960;73.462;2022-07-06T15:58:19;8.75;7.00;2.00
65361;PMS5003;51961;54.960;73.462;2022-07-06T16:01:22;6.00;6.00;3.75
65361;PMS5003;51961;54.960;73.462;2022-07-06T16:04:24;5.00;5.00;2.00
65361;PMS5003;51961;54.960;73.462;2022-07-06T16:07:28;6.00;6.00;2.00
65361;PMS5003;51961;54.960;73.462;2022-07-06T16:10:30;5.50;5.25;2.00
65361;PMS5003;51961;54.960;73.462;2022-07-06T16:13:32;5.00;4.00;2.00
65361;PMS5003;51961;54.960;73.462;2022-07-06T16:16:34;4.00;3.33;1.00
65361;PMS5003;51961;54.960;73.462;2022-07-06T16:19:47;5.00;4.33;0.00
65361;PMS5003;51961;54.960;73.462;2022-07-06T16:22:50;4.50;3.00;0.00
65361;PMS5003;51961;54.960;73.462;2022-07-06T16:25:52;3.00;3.00;0.00
65361;PMS5003;51961;54.960;73.462;2022-07-06T16:29:05;4.25;4.25;0.00
65361;PMS5003;51961;54.960;73.462;2022-07-06T16:32:07;5.00;4.00;0.00
65361;PMS5003;51961;54.960;73.462;2022-07-06T16:35:09;4.50;4.25;0.00
65361;PMS5003;51961;54.960;73.462;2022-07-06T16:38:12;3.50;2.00;0.00
65361;PMS5003;51961;54.960;73.462;2022-07-06T16:41:20;3.00;3.00;0.00
65361;PMS5003;51961;54.960;73.462;2022-07-06T16:44:27;4.33;3.00;0.00
65361;PMS5003;51961;54.960;73.462;2022-07-06T16:47:30;4.75;4.75;0.00
65361;PMS5003;51961;54.960;73.462;2022-07-06T16:50:32;3.67;3.00;0.00
65361;PMS5003;51961;54.960;73.462;2022-07-06T16:53:35;3.00;3.00;0.00
65361;PMS5003;51961;54.960;73.462;2022-07-06T16:56:38;3.00;3.00;0.00
65361;PMS5003;51961;54.960;73.462;2022-07-06T16:59:41;4.00;3.00;0.00
65361;PMS5003;51961;54.960;73.462;2022-07-06T17:02:43;3.00;2.00;0.00
65361;PMS5003;51961;54.960;73.462;2022-07-06T17:05:46;3.33;3.33;0.00
65361;PMS5003;51961;54.960;73.462;2022-07-06T17:08:49;3.00;3.00;0.00
65361;PMS5003;51961;54.960;73.462;2022-07-06T17:11:53;3.00;2.00;0.00
65361;PMS5003;51961;54.960;73.462;2022-07-06T17:14:55;3.50;3.00;0.00
65361;PMS5003;51961;54.960;73.462;2022-07-06T17:17:57;1.00;1.00;0.00
65361;PMS5003;51961;54.960;73.462;2022-07-06T17:21:10;3.00;2.00;0.00
65361;PMS5003;51961;54.960;73.462;2022-07-06T17:24:13;2.00;2.00;0.00